Date,TemperatureHighF,TemperatureAvgF,TemperatureLowF,DewpointHighF,DewpointAvgF,DewpointLowF,HumidityHigh,HumidityAvg,HumidityLow,PressureMaxIn,PressureMinIn,WindSpeedMaxMPH,WindSpeedAvgMPH,GustSpeedMaxMPH,PrecipitationSumIn
2013-1-1,29,19,5,25,10,-2,92,68,46,29.39,29.12,19,2,19,0.00
2013-1-2,18,8,-1,6,-2,-9,87,65,48,29.59,29.37,24,2,24,0.00
2013-1-3,19,3,-9,6,-4,-14,88,72,48,29.64,29.48,2,0,2,0.00
2013-1-4,33,18,-3,25,12,-7,89,80,64,29.48,29.23,5,0,9,0.00
2013-1-5,34,26,11,24,14,7,85,63,46,29.78,29.25,21,1,21,0.00
2013-1-6,28,19,11,20,14,7,90,81,67,29.75,29.43,1,0,1,0.00
2013-1-7,27,20,4,21,13,1,94,76,54,29.91,29.47,14,0,14,0.00
2013-1-8,28,12,0,20,8,-4,93,84,70,29.91,29.72,3,0,3,0.00
2013-1-9,36,17,6,29,14,3,95,88,73,29.95,29.43,13,0,13,0.00
2013-1-10,40,37,28,33,26,21,90,65,54,30.04,29.44,28,3,28,0.04
2013-1-11,35,28,17,30,23,15,95,82,60,30.05,29.77,2,0,2,0.00
2013-1-12,35,32,31,34,32,30,98,97,95,29.77,29.63,1,0,1,0.04
2013-1-13,35,33,32,34,32,31,98,98,97,29.67,29.47,1,0,1,0.01
2013-1-14,49,36,30,44,31,24,99,84,52,29.74,29.36,14,1,14,0.01
2013-1-15,37,31,26,26,24,21,90,74,52,29.83,29.74,13,0,13,0.00
2013-1-16,28,27,22,26,24,20,95,91,84,29.78,29.30,1,0,2,0.00
2013-1-17,32,23,13,29,16,0,97,78,38,29.64,29.29,16,0,16,0.00
2013-1-18,15,8,-2,3,-4,-11,77,57,37,29.91,29.61,13,1,16,0.00
2013-1-19,27,16,-2,24,13,-7,94,88,78,29.87,29.38,2,0,2,0.00
2013-1-20,42,25,12,32,18,8,97,74,47,29.38,28.95,6,0,12,0.09
2013-1-21,25,15,1,10,3,-5,85,60,36,29.55,29.36,4,0,6,0.00
2013-1-22,23,12,0,10,3,-11,87,68,43,29.56,29.31,12,0,13,0.00
2013-1-23,4,-4,-14,-10,-16,-20,75,57,38,29.63,29.55,14,0,14,0.00
2013-1-24,10,-3,-19,-6,-14,-24,83,61,36,29.67,29.49,24,2,24,0.00
2013-1-25,17,5,-7,2,-4,-12,82,65,43,29.75,29.60,12,0,12,0.00
2013-1-26,16,10,1,3,-2,-7,87,60,38,29.68,29.54,25,4,25,0.00
2013-1-27,24,13,3,4,-1,-5,72,53,33,29.95,29.67,20,3,25,0.00
2013-1-28,20,10,-3,15,4,-7,91,77,42,29.95,29.61,1,0,1,0.00
2013-1-29,30,18,2,27,15,-2,96,89,80,29.75,29.60,0,0,0,0.00
2013-1-30,34,32,28,33,31,27,98,97,96,29.67,28.95,4,0,4,0.14
2013-1-31,48,37,26,48,30,11,100,78,44,28.97,28.32,14,0,14,1.25